createdAt,value
2023-05-06T00:00:24.540Z,33.05
2023-05-06T00:01:56.658Z,32.57
2023-05-06T00:03:33.480Z,32.86
2023-05-06T00:05:05.011Z,39.00
2023-05-06T00:06:36.346Z,29.69
2023-05-06T00:08:07.712Z,29.33
2023-05-06T00:09:39.148Z,32.13
2023-05-06T00:11:10.682Z,30.10
2023-05-06T00:12:42.117Z,31.46
2023-05-06T00:14:15.005Z,32.95
2023-05-06T00:15:46.537Z,33.37
2023-05-06T00:17:18.042Z,33.19
2023-05-06T00:18:49.588Z,30.99
2023-05-06T00:20:21.099Z,33.26
2023-05-06T00:21:52.714Z,31.39
2023-05-06T00:23:24.073Z,34.49
2023-05-06T00:24:55.671Z,32.70
2023-05-06T00:26:27.201Z,34.94
2023-05-06T00:27:58.683Z,32.57
2023-05-06T00:29:30.180Z,32.63
2023-05-06T00:31:01.904Z,30.77
2023-05-06T00:32:33.220Z,29.40
2023-05-06T00:34:04.520Z,29.41
2023-05-06T00:35:35.846Z,29.86
2023-05-06T00:37:07.178Z,28.11
2023-05-06T00:38:38.448Z,28.83
2023-05-06T00:40:09.794Z,31.33
2023-05-06T00:41:41.073Z,29.88
2023-05-06T00:43:12.524Z,30.52
2023-05-06T00:44:43.802Z,31.30
2023-05-06T00:46:15.278Z,31.91
2023-05-06T00:47:46.687Z,28.78
2023-05-06T00:49:19.304Z,27.71
2023-05-06T00:50:50.665Z,28.18
2023-05-06T00:52:22.020Z,34.93
2023-05-06T00:53:53.360Z,33.17
2023-05-06T00:55:24.632Z,32.80
2023-05-06T00:56:56.002Z,33.11
2023-05-06T00:58:27.386Z,35.06
2023-05-06T00:59:59.070Z,37.28
2023-05-06T01:01:30.450Z,33.82
2023-05-06T01:03:01.952Z,31.69
2023-05-06T01:04:33.436Z,32.72
2023-05-06T01:06:04.994Z,33.88
2023-05-06T01:07:36.365Z,34.56
2023-05-06T01:09:07.608Z,34.85
2023-05-06T01:10:38.896Z,34.48
2023-05-06T01:12:10.319Z,32.42
2023-05-06T01:13:41.722Z,33.48
2023-05-06T01:15:13.046Z,33.76
2023-05-06T01:16:44.487Z,34.56
2023-05-06T01:18:15.972Z,35.04
2023-05-06T01:19:47.205Z,34.82
2023-05-06T01:21:18.488Z,30.86
2023-05-06T01:22:50.143Z,29.70
2023-05-06T01:24:21.473Z,30.13
2023-05-06T01:25:52.732Z,30.80
2023-05-06T01:27:24.118Z,35.38
2023-05-06T01:28:55.466Z,35.66
2023-05-06T01:30:26.715Z,32.26
2023-05-06T01:31:57.972Z,32.42
2023-05-06T01:33:29.435Z,33.20
2023-05-06T01:35:00.762Z,30.76
2023-05-06T01:36:32.016Z,32.73
2023-05-06T01:38:03.291Z,30.20
2023-05-06T01:39:34.553Z,32.30
2023-05-06T01:41:05.851Z,35.43
2023-05-06T01:42:37.139Z,33.38
2023-05-06T01:44:08.486Z,29.36
2023-05-06T01:45:39.850Z,30.37
2023-05-06T01:47:11.181Z,27.77
2023-05-06T01:48:42.533Z,30.25
2023-05-06T01:50:13.842Z,36.25
2023-05-06T01:51:45.325Z,37.26
2023-05-06T01:53:17.051Z,33.62
2023-05-06T01:54:49.973Z,34.29
2023-05-06T01:56:21.625Z,35.94
2023-05-06T01:57:53.681Z,38.46
2023-05-06T01:59:25.449Z,32.51
2023-05-06T02:00:58.065Z,31.10
2023-05-06T02:02:30.039Z,32.17
2023-05-06T02:04:02.074Z,30.25
2023-05-06T02:05:33.626Z,29.76
2023-05-06T02:07:05.449Z,28.63
2023-05-06T02:08:36.819Z,31.09
2023-05-06T02:10:08.298Z,32.44
2023-05-06T02:11:39.765Z,29.69
2023-05-06T02:13:11.128Z,30.40
2023-05-06T02:14:42.599Z,32.21
2023-05-06T02:16:13.925Z,31.98
2023-05-06T02:17:45.565Z,35.76
2023-05-06T02:19:17.074Z,34.14
2023-05-06T02:20:48.384Z,36.23
2023-05-06T02:22:19.708Z,37.34
2023-05-06T02:23:51.026Z,36.39
2023-05-06T02:25:22.382Z,49.94
2023-05-06T02:26:53.774Z,42.38
2023-05-06T02:28:25.256Z,47.90
2023-05-06T02:29:56.601Z,53.57
2023-05-06T02:31:27.869Z,70.46
2023-05-06T02:32:59.634Z,81.57
2023-05-06T02:34:30.976Z,73.34
2023-05-06T02:36:02.225Z,43.74
2023-05-06T02:37:33.501Z,41.93
2023-05-06T02:39:04.938Z,48.74
2023-05-06T02:40:36.298Z,38.96
2023-05-06T02:42:07.630Z,43.12
2023-05-06T02:43:39.156Z,38.73
2023-05-06T02:45:10.820Z,42.19
2023-05-06T02:46:42.512Z,41.72
2023-05-06T02:48:14.040Z,36.70
2023-05-06T02:49:45.270Z,35.98
2023-05-06T02:51:17.876Z,35.00
2023-05-06T02:52:49.180Z,39.67
2023-05-06T02:54:20.542Z,64.31
2023-05-06T02:55:52.013Z,57.22
2023-05-06T02:57:23.278Z,140.70
2023-05-06T02:58:54.556Z,37.20
2023-05-06T03:00:25.885Z,35.18
2023-05-06T03:01:57.139Z,38.12
2023-05-06T03:03:28.383Z,39.92
2023-05-06T03:04:59.921Z,37.50
2023-05-06T03:06:31.172Z,36.70
2023-05-06T03:08:02.417Z,33.32
2023-05-06T03:09:35.012Z,34.48
2023-05-06T03:11:08.117Z,33.27
2023-05-06T03:12:40.032Z,34.84
2023-05-06T03:14:11.628Z,36.99
2023-05-06T03:15:43.012Z,34.74
2023-05-06T03:17:14.281Z,36.40
2023-05-06T03:18:45.834Z,35.90
2023-05-06T03:20:17.315Z,36.65
2023-05-06T03:21:49.484Z,36.09
2023-05-06T03:23:26.786Z,31.02
2023-05-06T03:24:59.685Z,31.91
2023-05-06T03:26:31.397Z,32.34
2023-05-06T03:28:03.460Z,32.51
2023-05-06T03:29:35.205Z,31.82
2023-05-06T03:31:07.208Z,32.33
2023-05-06T03:32:38.973Z,28.88
2023-05-06T03:34:10.437Z,30.40
2023-05-06T03:35:41.703Z,31.55
2023-05-06T03:37:13.155Z,29.81
2023-05-06T03:38:44.504Z,31.35
2023-05-06T03:40:15.906Z,27.60
2023-05-06T03:41:47.186Z,27.58
2023-05-06T03:43:18.536Z,27.79
2023-05-06T03:44:49.979Z,29.32
2023-05-06T03:46:21.711Z,27.76
2023-05-06T03:47:53.154Z,29.25
2023-05-06T03:49:25.716Z,29.01
2023-05-06T03:50:57.087Z,30.61
2023-05-06T03:52:28.424Z,29.96
2023-05-06T03:53:59.915Z,31.47
2023-05-06T03:55:31.470Z,29.14
2023-05-06T03:57:02.813Z,30.63
2023-05-06T03:58:34.186Z,27.14
2023-05-06T04:00:05.828Z,27.90
2023-05-06T04:01:37.204Z,26.71
2023-05-06T04:03:08.633Z,30.25
2023-05-06T04:04:40.060Z,26.36
2023-05-06T04:06:11.471Z,27.05
2023-05-06T04:07:43.039Z,28.29
2023-05-06T04:09:14.569Z,29.49
2023-05-06T04:10:46.025Z,27.34
2023-05-06T04:12:17.357Z,29.36
2023-05-06T04:13:48.600Z,32.46
2023-05-06T04:15:19.954Z,30.68
2023-05-06T04:16:51.913Z,34.61
2023-05-06T04:18:23.272Z,31.52
2023-05-06T04:19:54.797Z,32.88
2023-05-06T04:21:26.060Z,33.30
2023-05-06T04:22:57.431Z,33.60
2023-05-06T04:24:28.875Z,31.23
2023-05-06T04:26:00.516Z,32.55
2023-05-06T04:27:31.863Z,30.13
2023-05-06T04:29:03.196Z,30.94
2023-05-06T04:30:34.591Z,30.03
2023-05-06T04:32:05.995Z,35.78
2023-05-06T04:33:37.582Z,30.38
2023-05-06T04:35:09.300Z,28.47
2023-05-06T04:36:41.008Z,28.04
2023-05-06T04:38:12.407Z,27.33
2023-05-06T04:39:43.774Z,27.32
2023-05-06T04:41:15.654Z,27.46
2023-05-06T04:42:47.119Z,29.84
2023-05-06T04:44:18.448Z,28.50
2023-05-06T04:45:50.013Z,26.47
2023-05-06T04:47:21.892Z,28.35
2023-05-06T04:48:53.295Z,27.16
2023-05-06T04:50:24.738Z,26.73
2023-05-06T04:51:56.211Z,27.00
2023-05-06T04:53:27.713Z,26.61
2023-05-06T04:54:59.093Z,26.99
2023-05-06T04:56:30.536Z,27.11
2023-05-06T04:58:01.995Z,28.50
2023-05-06T04:59:33.311Z,28.30
2023-05-06T05:01:04.695Z,28.89
2023-05-06T05:02:36.202Z,27.63
2023-05-06T05:04:07.643Z,26.89
2023-05-06T05:05:39.324Z,28.32
2023-05-06T05:07:10.711Z,26.16
2023-05-06T05:08:42.020Z,27.72
2023-05-06T05:10:13.264Z,28.19
2023-05-06T05:11:45.080Z,26.23
2023-05-06T05:13:16.528Z,25.26
2023-05-06T05:14:47.843Z,29.07
2023-05-06T05:16:19.311Z,29.24
2023-05-06T05:17:50.714Z,30.01
2023-05-06T05:19:22.252Z,29.32
2023-05-06T05:20:53.816Z,27.10
2023-05-06T05:22:25.082Z,27.66
2023-05-06T05:24:29.719Z,29.25
2023-05-06T05:26:01.084Z,29.52
2023-05-06T05:27:32.523Z,29.79
2023-05-06T05:29:03.845Z,28.78
2023-05-06T05:30:35.275Z,26.55
2023-05-06T05:32:11.680Z,26.94
2023-05-06T05:33:43.085Z,26.67
2023-05-06T05:35:14.656Z,29.56
2023-05-06T05:36:46.037Z,29.12
2023-05-06T05:38:17.431Z,28.43
2023-05-06T05:39:48.863Z,29.24
2023-05-06T05:41:20.241Z,29.21
2023-05-06T05:43:21.390Z,27.78
2023-05-06T05:44:52.977Z,29.48
2023-05-06T05:46:24.349Z,27.18
2023-05-06T05:47:56.015Z,27.61
2023-05-06T05:49:27.464Z,29.57
2023-05-06T05:50:58.827Z,27.98
2023-05-06T05:52:30.289Z,28.17
2023-05-06T05:54:01.713Z,30.44
2023-05-06T05:55:33.013Z,31.68
2023-05-06T05:57:04.420Z,30.24
2023-05-06T05:58:35.889Z,28.75
2023-05-06T06:00:07.293Z,31.54
2023-05-06T06:01:38.614Z,28.54
2023-05-06T06:03:10.249Z,27.98
2023-05-06T06:04:41.874Z,29.89
2023-05-06T06:06:13.184Z,31.48
2023-05-06T06:07:44.622Z,31.72
2023-05-06T06:09:15.977Z,33.36
2023-05-06T06:10:47.373Z,31.13
2023-05-06T06:12:18.742Z,31.88
2023-05-06T06:13:50.139Z,33.75
2023-05-06T06:15:21.488Z,31.30
2023-05-06T06:16:52.855Z,31.05
2023-05-06T06:18:24.489Z,30.36
2023-05-06T06:19:55.768Z,33.85
2023-05-06T06:21:42.268Z,32.92
2023-05-06T06:23:13.504Z,34.50
2023-05-06T06:24:44.919Z,33.66
2023-05-06T06:26:16.345Z,35.14
2023-05-06T06:28:10.256Z,32.50
2023-05-06T06:29:41.780Z,34.39
2023-05-06T06:31:13.951Z,31.38
2023-05-06T06:32:45.334Z,32.98
2023-05-06T06:34:16.731Z,33.83
2023-05-06T06:35:48.036Z,33.22
2023-05-06T06:37:19.489Z,32.20
2023-05-06T06:38:50.999Z,33.15
2023-05-06T06:40:22.446Z,33.58
2023-05-06T06:41:53.758Z,34.70
2023-05-06T06:43:25.502Z,34.91
2023-05-06T06:44:56.798Z,33.07
2023-05-06T06:46:28.097Z,33.65
2023-05-06T06:47:59.682Z,35.08
2023-05-06T06:49:31.012Z,37.21
2023-05-06T06:51:02.551Z,31.72
2023-05-06T06:52:39.722Z,35.52
2023-05-06T06:54:11.074Z,35.44
2023-05-06T06:55:42.544Z,39.12
2023-05-06T06:57:20.362Z,37.81
2023-05-06T06:58:53.405Z,37.28
2023-05-06T07:00:26.361Z,32.63
2023-05-06T07:01:57.880Z,32.93
2023-05-06T07:03:29.932Z,32.86
2023-05-06T07:05:07.110Z,37.60
2023-05-06T07:06:38.587Z,36.01
2023-05-06T07:08:12.094Z,36.60
2023-05-06T07:09:43.768Z,37.78
2023-05-06T07:11:15.853Z,33.89
2023-05-06T07:12:47.482Z,33.59
2023-05-06T07:14:30.000Z,37.97
2023-05-06T07:16:01.691Z,37.34
2023-05-06T07:17:33.189Z,35.80
2023-05-06T07:19:04.586Z,33.81
2023-05-06T07:20:36.239Z,38.16
2023-05-06T07:22:12.634Z,37.47
2023-05-06T07:23:45.133Z,36.30
2023-05-06T07:25:17.390Z,35.30
2023-05-06T07:26:49.654Z,34.28
2023-05-06T07:28:22.310Z,35.61
2023-05-06T07:29:54.153Z,34.66
2023-05-06T07:31:25.524Z,31.11
2023-05-06T07:32:57.416Z,32.51
2023-05-06T07:34:29.472Z,34.46
2023-05-06T07:36:01.459Z,32.70
2023-05-06T07:37:32.734Z,36.78
2023-05-06T07:39:04.583Z,35.06
2023-05-06T07:40:36.703Z,35.10
2023-05-06T07:42:08.154Z,35.07
2023-05-06T07:43:49.676Z,36.31
2023-05-06T07:45:21.352Z,31.75
2023-05-06T07:46:53.289Z,31.58
2023-05-06T07:48:24.739Z,28.17
2023-05-06T07:49:56.372Z,29.78
2023-05-06T07:51:27.646Z,27.90
2023-05-06T07:52:58.977Z,32.38
2023-05-06T07:54:30.447Z,28.38
2023-05-06T07:56:02.067Z,26.42
2023-05-06T07:57:33.600Z,25.74
2023-05-06T07:59:05.950Z,26.08
2023-05-06T08:00:37.267Z,25.79
2023-05-06T08:02:09.454Z,26.69
2023-05-06T08:03:41.017Z,29.89
2023-05-06T08:05:12.747Z,28.59
2023-05-06T08:06:44.711Z,28.90
2023-05-06T08:08:16.090Z,27.52
2023-05-06T08:09:48.665Z,24.89
2023-05-06T08:11:20.186Z,23.13
2023-05-06T08:12:51.555Z,24.89
2023-05-06T08:14:22.876Z,24.22
2023-05-06T08:15:54.197Z,20.84
2023-05-06T08:17:30.715Z,21.78
2023-05-06T08:19:02.056Z,20.49
2023-05-06T08:20:33.481Z,20.72
2023-05-06T08:22:04.798Z,21.82
2023-05-06T08:23:36.235Z,23.29
2023-05-06T08:25:07.719Z,21.50
2023-05-06T08:26:39.251Z,19.63
2023-05-06T08:28:11.069Z,20.92
2023-05-06T08:29:44.189Z,20.57
2023-05-06T08:31:15.800Z,19.96
2023-05-06T08:32:47.161Z,21.57
2023-05-06T08:34:18.746Z,19.80
2023-05-06T08:35:50.257Z,18.86
2023-05-06T08:37:21.643Z,17.28
2023-05-06T08:38:52.929Z,17.69
2023-05-06T08:40:24.233Z,18.38
2023-05-06T08:41:55.546Z,18.39
2023-05-06T08:43:26.956Z,17.37
2023-05-06T08:44:58.275Z,16.79
2023-05-06T08:46:29.738Z,15.48
2023-05-06T08:48:01.296Z,15.81
2023-05-06T08:49:32.993Z,17.05
2023-05-06T08:51:19.554Z,15.49
2023-05-06T08:52:51.240Z,13.98
2023-05-06T08:54:27.702Z,13.69
2023-05-06T08:56:04.071Z,13.26
2023-05-06T08:57:36.216Z,14.12
2023-05-06T08:59:17.549Z,12.99
2023-05-06T09:00:49.222Z,12.68
2023-05-06T09:02:26.977Z,11.53
2023-05-06T09:03:58.351Z,13.20
2023-05-06T09:05:29.854Z,12.11
2023-05-06T09:07:01.334Z,10.89
2023-05-06T09:08:32.705Z,11.25
2023-05-06T09:10:04.393Z,10.94
2023-05-06T09:11:36.144Z,11.16
2023-05-06T09:13:07.814Z,10.02
2023-05-06T09:14:39.498Z,11.24
2023-05-06T09:16:10.932Z,11.73
2023-05-06T09:17:42.586Z,12.96
2023-05-06T09:19:14.144Z,9.98
2023-05-06T09:20:45.736Z,10.87
2023-05-06T09:22:17.241Z,9.13
2023-05-06T09:23:48.754Z,8.61
2023-05-06T09:25:20.080Z,10.28
2023-05-06T09:26:51.445Z,7.10
2023-05-06T09:28:22.942Z,6.22
2023-05-06T09:29:54.373Z,6.47
2023-05-06T09:31:25.966Z,6.73
2023-05-06T09:32:57.469Z,7.28
2023-05-06T09:34:28.914Z,6.48
2023-05-06T09:36:01.692Z,4.42
2023-05-06T09:37:33.240Z,4.67
2023-05-06T09:39:05.290Z,5.05
2023-05-06T09:40:36.771Z,4.64
2023-05-06T09:42:08.139Z,4.34
2023-05-06T09:43:39.535Z,4.60
2023-05-06T09:45:11.320Z,3.36
2023-05-06T09:46:42.908Z,4.77
2023-05-06T09:48:14.398Z,3.26
2023-05-06T09:49:45.989Z,5.11
2023-05-06T09:51:17.497Z,5.82
2023-05-06T09:52:48.915Z,5.38
2023-05-06T09:54:20.509Z,5.70
2023-05-06T09:55:51.981Z,4.30
2023-05-06T09:57:23.545Z,4.50
2023-05-06T09:58:54.986Z,3.79
2023-05-06T10:00:26.567Z,5.58
2023-05-06T10:01:58.119Z,4.80
2023-05-06T10:03:29.796Z,5.94
2023-05-06T10:05:01.702Z,4.95
2023-05-06T10:06:33.284Z,6.81
2023-05-06T10:08:04.701Z,3.80
2023-05-06T10:09:36.080Z,5.55
2023-05-06T10:11:07.468Z,4.88
2023-05-06T10:12:38.937Z,4.79
2023-05-06T10:14:10.502Z,3.93
2023-05-06T10:15:42.060Z,4.50
2023-05-06T10:17:13.490Z,4.32
2023-05-06T10:18:45.005Z,4.51
2023-05-06T10:20:16.423Z,3.79
2023-05-06T10:21:48.069Z,4.40
2023-05-06T10:23:19.522Z,3.63
2023-05-06T10:24:51.485Z,4.21
2023-05-06T10:26:22.889Z,4.24
2023-05-06T10:27:54.328Z,4.84
2023-05-06T10:29:26.450Z,3.84
2023-05-06T10:30:57.813Z,4.87
2023-05-06T10:32:29.231Z,3.95
2023-05-06T10:34:00.745Z,3.87
2023-05-06T10:35:32.277Z,4.51
2023-05-06T10:37:03.627Z,3.89
2023-05-06T10:38:35.540Z,5.00
2023-05-06T10:40:08.055Z,5.12
2023-05-06T10:41:39.450Z,3.40
2023-05-06T10:43:10.925Z,3.18
2023-05-06T10:44:43.122Z,2.87
2023-05-06T10:46:15.465Z,4.39
2023-05-06T10:47:47.102Z,3.25
2023-05-06T10:49:18.573Z,4.43
2023-05-06T10:50:50.164Z,4.45
2023-05-06T10:52:21.633Z,4.12
2023-05-06T10:53:53.188Z,3.64
2023-05-06T10:55:24.778Z,2.91
2023-05-06T10:56:56.190Z,3.88
2023-05-06T10:58:27.751Z,3.86
2023-05-06T10:59:59.388Z,4.11
2023-05-06T11:01:30.955Z,5.04
2023-05-06T11:03:02.643Z,4.21
2023-05-06T11:04:34.344Z,2.99
2023-05-06T11:06:06.002Z,3.77
2023-05-06T11:07:37.504Z,3.58
2023-05-06T11:09:09.076Z,3.28
2023-05-06T11:10:40.497Z,3.92
2023-05-06T11:12:11.907Z,2.62
2023-05-06T11:13:43.415Z,2.75
2023-05-06T11:15:15.111Z,4.01
2023-05-06T11:16:46.617Z,4.03
2023-05-06T11:18:18.069Z,2.55
2023-05-06T11:19:49.602Z,3.17
2023-05-06T11:21:21.108Z,5.08
2023-05-06T11:22:52.567Z,4.34
2023-05-06T11:24:24.282Z,3.01
2023-05-06T11:25:55.854Z,4.17
2023-05-06T11:27:27.286Z,3.56
2023-05-06T11:28:58.734Z,6.23
2023-05-06T11:30:30.199Z,4.47
2023-05-06T11:32:01.711Z,3.73
2023-05-06T11:33:33.370Z,3.28
2023-05-06T11:35:04.971Z,3.13
2023-05-06T11:36:36.438Z,4.73
2023-05-06T11:38:07.882Z,3.73
2023-05-06T11:39:41.089Z,4.36
2023-05-06T11:41:12.664Z,2.58
2023-05-06T11:42:44.065Z,2.14
2023-05-06T11:44:15.591Z,2.64
2023-05-06T11:45:47.061Z,2.90
2023-05-06T11:47:28.658Z,3.77
2023-05-06T11:49:00.148Z,2.73
2023-05-06T11:50:31.565Z,3.06
2023-05-06T11:52:03.050Z,5.27
2023-05-06T11:53:34.523Z,3.72
2023-05-06T11:55:06.002Z,2.73
2023-05-06T11:56:57.397Z,2.50
2023-05-06T11:58:28.927Z,2.86
2023-05-06T12:00:00.570Z,2.99
2023-05-06T12:01:32.056Z,3.51
2023-05-06T12:03:03.654Z,2.12
2023-05-06T12:04:35.437Z,2.95
2023-05-06T12:06:06.955Z,3.15
2023-05-06T12:07:38.691Z,3.99
2023-05-06T12:09:10.636Z,3.75
2023-05-06T12:10:42.371Z,2.10
2023-05-06T12:12:14.318Z,3.60
2023-05-06T12:13:56.094Z,2.79
2023-05-06T12:15:27.609Z,3.50
2023-05-06T12:17:20.492Z,2.62
2023-05-06T12:18:52.201Z,3.75
2023-05-06T12:20:43.087Z,3.63
2023-05-06T12:22:15.246Z,3.73
2023-05-06T12:23:46.959Z,3.38
2023-05-06T12:25:18.836Z,3.95
2023-05-06T12:26:50.465Z,3.02
2023-05-06T12:28:22.344Z,3.93
2023-05-06T12:30:00.162Z,3.96
2023-05-06T12:31:51.765Z,3.58
2023-05-06T12:33:23.455Z,2.94
2023-05-06T12:34:55.209Z,3.62
2023-05-06T12:36:26.778Z,2.73
2023-05-06T12:37:58.334Z,3.13
2023-05-06T12:39:29.876Z,3.23
2023-05-06T12:41:06.355Z,3.17
2023-05-06T12:42:37.936Z,3.18
2023-05-06T12:44:09.454Z,3.17
2023-05-06T12:45:41.170Z,4.68
2023-05-06T12:47:13.386Z,4.28
2023-05-06T12:48:45.575Z,3.66
2023-05-06T12:50:17.150Z,4.63
2023-05-06T12:51:48.659Z,3.18
2023-05-06T12:53:20.211Z,4.21
2023-05-06T12:54:51.757Z,4.62
2023-05-06T12:56:23.297Z,3.49
2023-05-06T12:57:56.080Z,3.05
2023-05-06T12:59:29.449Z,3.12
2023-05-06T13:01:49.799Z,3.80
2023-05-06T13:03:21.751Z,4.45
2023-05-06T13:04:53.448Z,2.62
2023-05-06T13:06:24.992Z,2.79
2023-05-06T13:07:56.547Z,5.30
2023-05-06T13:09:28.088Z,3.77
2023-05-06T13:10:59.656Z,5.73
2023-05-06T13:12:31.261Z,4.17
2023-05-06T13:14:02.745Z,2.73
2023-05-06T13:15:34.319Z,4.56
2023-05-06T13:17:05.801Z,4.23
2023-05-06T13:18:37.446Z,4.75
2023-05-06T13:20:09.209Z,2.69
2023-05-06T13:21:41.078Z,2.88
2023-05-06T13:23:12.790Z,3.11
2023-05-06T13:24:44.343Z,3.24
2023-05-06T13:26:15.962Z,3.14
2023-05-06T13:27:47.491Z,2.79
2023-05-06T13:29:19.022Z,3.08
2023-05-06T13:30:51.226Z,4.21
2023-05-06T13:32:22.857Z,3.01
2023-05-06T13:33:54.467Z,3.85
2023-05-06T13:35:25.993Z,3.74
2023-05-06T13:36:57.678Z,2.71
2023-05-06T13:38:29.181Z,3.76
2023-05-06T13:40:00.860Z,3.80
2023-05-06T13:41:32.408Z,2.73
2023-05-06T13:43:04.183Z,3.93
2023-05-06T13:44:35.895Z,3.16
2023-05-06T13:46:07.619Z,4.21
2023-05-06T13:47:39.292Z,3.84
2023-05-06T13:49:11.012Z,3.53
2023-05-06T13:50:42.549Z,3.96
2023-05-06T13:52:14.052Z,3.45
2023-05-06T13:53:45.676Z,4.02
2023-05-06T13:55:19.300Z,5.14
2023-05-06T13:56:51.109Z,3.70
2023-05-06T13:58:22.665Z,3.76
2023-05-06T13:59:54.407Z,3.51
2023-05-06T14:01:26.221Z,3.77
2023-05-06T14:02:57.884Z,4.45
2023-05-06T14:04:29.538Z,4.70
2023-05-06T14:06:01.195Z,4.51
2023-05-06T14:07:32.845Z,3.71
2023-05-06T14:09:04.392Z,4.30
2023-05-06T14:10:36.105Z,3.16
2023-05-06T14:12:08.013Z,3.26
2023-05-06T14:13:39.544Z,3.67
2023-05-06T14:17:23.284Z,2.91
2023-05-06T14:18:55.073Z,2.87
2023-05-06T14:20:27.329Z,2.44
2023-05-06T14:21:59.276Z,2.44
2023-05-06T14:23:31.041Z,4.65
2023-05-06T14:25:02.674Z,3.05
2023-05-06T14:26:34.584Z,3.06
2023-05-06T14:28:06.783Z,3.59
2023-05-06T14:29:38.632Z,3.51
2023-05-06T14:31:10.343Z,3.62
2023-05-06T14:32:42.061Z,4.40
2023-05-06T14:34:13.652Z,2.45
2023-05-06T14:37:53.503Z,3.69
2023-05-06T14:39:25.027Z,3.18
2023-05-06T14:40:59.222Z,3.75
2023-05-06T14:42:31.096Z,2.04
2023-05-06T14:44:02.614Z,3.91
2023-05-06T14:45:34.221Z,4.66
2023-05-06T14:47:05.902Z,3.83
2023-05-06T14:48:37.546Z,3.29
2023-05-06T14:50:09.036Z,3.52
2023-05-06T14:51:40.713Z,4.18
2023-05-06T14:53:12.247Z,4.03
2023-05-06T14:54:43.757Z,4.34
2023-05-06T14:56:25.331Z,3.47
2023-05-06T14:58:01.946Z,4.37
2023-05-06T14:59:33.523Z,3.72
2023-05-06T15:01:05.225Z,4.22
2023-05-06T15:02:41.855Z,4.57
2023-05-06T15:04:13.360Z,4.30
2023-05-06T15:05:44.956Z,3.67
2023-05-06T15:07:16.486Z,3.28
2023-05-06T15:08:48.159Z,5.61
2023-05-06T15:10:19.862Z,4.16
2023-05-06T15:11:51.333Z,3.22
2023-05-06T15:13:22.903Z,3.45
2023-05-06T15:14:54.505Z,5.15
2023-05-06T15:16:26.294Z,4.68
2023-05-06T15:17:57.915Z,3.99
2023-05-06T15:19:29.430Z,4.23
2023-05-06T15:21:00.900Z,4.28
2023-05-06T15:22:32.380Z,4.97
2023-05-06T15:24:03.875Z,4.65
2023-05-06T15:25:36.733Z,4.57
2023-05-06T15:27:26.689Z,5.00
2023-05-06T15:28:59.808Z,5.07
2023-05-06T15:30:36.420Z,5.08
2023-05-06T15:32:08.137Z,4.33
2023-05-06T15:33:39.708Z,5.53
2023-05-06T15:35:11.477Z,4.03
2023-05-06T15:36:43.200Z,3.56
2023-05-06T15:38:14.673Z,5.03
2023-05-06T15:39:46.348Z,4.44
2023-05-06T15:41:17.920Z,4.92
2023-05-06T15:42:49.386Z,4.60
2023-05-06T15:44:21.183Z,4.73
2023-05-06T15:45:58.194Z,4.66
2023-05-06T15:47:31.687Z,3.68
2023-05-06T15:49:31.891Z,4.94
2023-05-06T15:51:16.910Z,5.77
2023-05-06T15:52:52.405Z,6.51
2023-05-06T15:54:23.828Z,6.37
2023-05-06T15:55:57.985Z,6.58
2023-05-06T15:57:39.120Z,6.67
2023-05-06T15:59:10.548Z,6.47
2023-05-06T16:00:42.022Z,9.15
2023-05-06T16:02:26.932Z,10.36
2023-05-06T16:03:59.196Z,7.15
2023-05-06T16:05:30.776Z,5.76
2023-05-06T16:07:02.199Z,6.71
2023-05-06T16:08:33.685Z,7.06
2023-05-06T16:10:05.053Z,5.49
2023-05-06T16:11:36.468Z,7.51
2023-05-06T16:13:08.202Z,8.70
2023-05-06T16:14:39.760Z,6.32
2023-05-06T16:16:11.215Z,7.62
2023-05-06T16:17:42.751Z,5.14
2023-05-06T16:19:14.293Z,6.17
2023-05-06T16:20:45.679Z,5.62
2023-05-06T16:22:17.041Z,6.49
2023-05-06T16:23:48.402Z,4.16
2023-05-06T16:25:19.902Z,5.22
2023-05-06T16:26:51.520Z,4.80
2023-05-06T16:28:22.936Z,5.07
2023-05-06T16:29:54.341Z,4.38
2023-05-06T16:31:25.795Z,3.63
2023-05-06T16:32:57.237Z,4.64
2023-05-06T16:34:28.638Z,5.75
2023-05-06T16:35:59.985Z,4.80
2023-05-06T16:37:31.520Z,4.40
2023-05-06T16:39:02.878Z,5.47
2023-05-06T16:40:34.213Z,6.10
2023-05-06T16:42:05.672Z,4.01
2023-05-06T16:43:37.142Z,3.79
2023-05-06T16:45:08.482Z,4.61
2023-05-06T16:46:39.923Z,5.32
2023-05-06T16:48:11.527Z,5.48
2023-05-06T16:49:43.070Z,5.70
2023-05-06T16:51:14.426Z,5.03
2023-05-06T16:52:45.761Z,6.24
2023-05-06T16:54:17.152Z,5.09
2023-05-06T16:55:52.733Z,4.56
2023-05-06T16:57:24.187Z,5.47
2023-05-06T16:58:56.741Z,5.74
2023-05-06T17:00:28.337Z,5.57
2023-05-06T17:01:59.994Z,5.78
2023-05-06T17:03:31.467Z,5.80
2023-05-06T17:05:02.841Z,5.19
2023-05-06T17:06:34.436Z,6.07
2023-05-06T17:08:06.912Z,5.58
2023-05-06T17:09:38.544Z,6.21
2023-05-06T17:11:09.956Z,4.21
2023-05-06T17:12:41.677Z,5.23
2023-05-06T17:14:13.127Z,6.46
2023-05-06T17:15:44.555Z,6.76
2023-05-06T17:17:15.998Z,5.70
2023-05-06T17:18:47.696Z,5.32
2023-05-06T17:20:19.139Z,5.77
2023-05-06T17:21:50.669Z,9.44
2023-05-06T17:23:22.567Z,7.75
2023-05-06T17:24:54.079Z,4.98
2023-05-06T17:26:26.271Z,6.62
2023-05-06T17:27:57.703Z,7.26
2023-05-06T17:29:29.190Z,6.19
2023-05-06T17:31:00.811Z,6.59
2023-05-06T17:32:32.221Z,8.36
2023-05-06T17:34:15.012Z,11.19
2023-05-06T17:35:46.509Z,18.36
2023-05-06T17:37:17.945Z,11.02
2023-05-06T17:39:00.159Z,9.78
2023-05-06T17:40:31.649Z,11.62
2023-05-06T17:42:03.390Z,8.11
2023-05-06T17:43:34.981Z,6.27
2023-05-06T17:45:12.058Z,7.76
2023-05-06T17:46:43.973Z,7.54
2023-05-06T17:48:15.699Z,6.26
2023-05-06T17:49:47.216Z,4.68
2023-05-06T17:51:18.755Z,6.89
2023-05-06T17:53:00.391Z,7.21
2023-05-06T17:54:31.812Z,6.74
2023-05-06T17:56:08.341Z,12.42
2023-05-06T17:57:44.911Z,22.49
2023-05-06T17:59:27.618Z,38.77
2023-05-06T18:00:59.951Z,43.25
2023-05-06T18:02:31.467Z,19.28
2023-05-06T18:04:13.255Z,9.87
2023-05-06T18:06:05.174Z,8.77
2023-05-06T18:07:37.436Z,10.37
2023-05-06T18:09:09.781Z,9.99
2023-05-06T18:10:59.538Z,10.69
2023-05-06T18:12:41.333Z,8.58
2023-05-06T18:14:22.970Z,7.35
2023-05-06T18:15:54.374Z,7.68
2023-05-06T18:17:25.905Z,9.93
2023-05-06T18:18:57.485Z,9.11
2023-05-06T18:20:33.918Z,9.52
2023-05-06T18:22:05.393Z,11.36
2023-05-06T18:23:37.189Z,8.98
2023-05-06T18:25:09.092Z,11.36
2023-05-06T18:26:45.395Z,9.82
2023-05-06T18:28:17.557Z,9.93
2023-05-06T18:29:49.066Z,8.38
2023-05-06T18:31:20.522Z,9.16
2023-05-06T18:32:53.841Z,9.00
2023-05-06T18:34:26.956Z,9.07
2023-05-06T18:35:58.354Z,9.03
2023-05-06T18:37:29.891Z,10.90
2023-05-06T18:39:02.379Z,10.93
2023-05-06T18:40:33.846Z,13.07
2023-05-06T18:42:05.163Z,13.16
2023-05-06T18:43:36.500Z,10.08
2023-05-06T18:45:08.244Z,11.35
2023-05-06T18:46:40.134Z,11.92
2023-05-06T18:48:11.533Z,12.66
2023-05-06T18:49:43.254Z,12.99
2023-05-06T18:51:14.603Z,14.78
2023-05-06T18:52:46.192Z,15.08
2023-05-06T18:54:17.602Z,16.28
2023-05-06T18:56:24.729Z,17.04
2023-05-06T18:57:57.283Z,15.23
2023-05-06T18:59:28.773Z,16.28
2023-05-06T19:01:00.231Z,15.82
2023-05-06T19:02:32.116Z,15.51
2023-05-06T19:04:03.431Z,16.86
2023-05-06T19:05:35.301Z,15.54
2023-05-06T19:07:06.660Z,14.27
2023-05-06T19:08:38.418Z,14.75
2023-05-06T19:10:09.913Z,14.79
2023-05-06T19:11:41.555Z,12.78
2023-05-06T19:13:12.977Z,13.01
2023-05-06T19:14:45.813Z,15.13
2023-05-06T19:16:17.609Z,14.58
2023-05-06T19:17:54.231Z,13.01
2023-05-06T19:19:48.648Z,13.70
2023-05-06T19:21:20.023Z,14.26
2023-05-06T19:22:51.323Z,12.96
2023-05-06T19:24:22.811Z,15.16
2023-05-06T19:25:54.617Z,12.75
2023-05-06T19:27:26.218Z,13.81
2023-05-06T19:28:57.934Z,14.40
2023-05-06T19:30:34.300Z,13.73
2023-05-06T19:32:05.743Z,14.33
2023-05-06T19:33:37.633Z,13.76
2023-05-06T19:35:09.405Z,13.31
2023-05-06T19:36:41.168Z,11.07
2023-05-06T19:38:13.055Z,11.10
2023-05-06T19:39:44.637Z,10.19
2023-05-06T19:41:16.798Z,11.04
2023-05-06T19:42:48.208Z,9.56
2023-05-06T19:44:19.680Z,8.02
2023-05-06T19:45:51.061Z,6.98
2023-05-06T19:47:23.001Z,8.36
2023-05-06T19:48:54.676Z,7.56
2023-05-06T19:50:26.216Z,8.16
2023-05-06T19:51:57.825Z,7.34
2023-05-06T19:53:29.743Z,9.36
2023-05-06T19:55:01.486Z,11.17
2023-05-06T19:56:32.929Z,9.22
2023-05-06T19:58:04.335Z,8.20
2023-05-06T19:59:35.812Z,8.14
2023-05-06T20:01:07.232Z,6.58
2023-05-06T20:02:38.891Z,6.98
2023-05-06T20:04:10.408Z,6.00
2023-05-06T20:05:41.821Z,8.62
2023-05-06T20:07:13.147Z,7.64
2023-05-06T20:08:44.682Z,8.55
2023-05-06T20:10:16.722Z,8.92
2023-05-06T20:11:48.103Z,9.13
2023-05-06T20:13:19.532Z,8.86